Sant Andreu de Llavaneres, Spain
Current Conditions -  °F | °C
As of 2:00 PM on Friday 31 Oct 2014 (Local Time) from LELL Reporting Station
Few Clouds Few Clouds  
Wind Chill: 70°   Ceiling: Unl
Heat Index: 70°   Visibility: 6mi
Dew Point: 59°   Wind: 6mph
Humidity: 68%   Direction: 130°SE
Pressure: 30.24"   Gusts: NA
Location:  41.57°N, 2.48°E
Report Text: LELL 311300Z 13005KT 080V170 9000 FEW025 21/15 Q1024
Loading
Personal Weather Stations






























Interactive Weather Map
Tropical Storm Tracking
New forecast layout! Learn more

10-Day Weather Forecast

Advertisements
Track Severe Weather on mobile